Time;durP1;ratioP1;P1;durP2;ratioP2;P2;SDS_P1;SDS_P2;PMS_P1;PMS_P2;Temp;Humidity;BMP_temperature;BMP_pressure;BME280_temperature;BME280_humidity;BME280_pressure;Samples;Min_cycle;Max_cycle;Signal;HPM_P1;HPM_P2
2022/10/14 00:00:21;;;;;;;100.80;20.20;;;12.20;99.90;;;;;;5001739;28;20417;-81
2022/10/14 00:02:47;;;;;;;85.28;19.60;;;12.20;99.90;;;;;;5017230;28;20026;-81
2022/10/14 00:05:13;;;;;;;75.40;20.95;;;12.20;99.90;;;;;;5033602;28;20032;-81
2022/10/14 00:07:38;;;;;;;157.40;20.17;;;12.30;99.90;;;;;;5017273;28;20397;-81
2022/10/14 00:10:05;;;;;;;155.45;21.25;;;12.20;99.90;;;;;;5017088;28;20060;-81
2022/10/14 00:12:32;;;;;;;194.30;20.70;;;12.20;99.90;;;;;;5016890;28;20058;-81
2022/10/14 00:14:59;;;;;;;111.28;21.00;;;12.20;99.90;;;;;;5034926;28;20068;-81
2022/10/14 00:17:25;;;;;;;85.40;20.75;;;12.20;99.90;;;;;;5033222;28;20052;-80
2022/10/14 00:19:51;;;;;;;78.10;21.67;;;12.20;99.90;;;;;;5017275;28;20420;-81
2022/10/14 00:22:18;;;;;;;213.50;23.10;;;12.20;99.90;;;;;;5017331;28;20031;-81
2022/10/14 00:24:43;;;;;;;76.22;21.30;;;12.20;99.90;;;;;;5017028;28;20048;-81
2022/10/14 00:27:09;;;;;;;141.10;21.30;;;12.20;99.90;;;;;;5000639;28;20040;-81
2022/10/14 00:29:35;;;;;;;87.95;20.05;;;12.20;99.90;;;;;;5034864;28;20095;-81
2022/10/14 00:32:00;;;;;;;78.50;19.55;;;12.20;99.90;;;;;;5017017;28;20044;-81
2022/10/14 00:34:26;;;;;;;98.68;19.20;;;12.20;99.90;;;;;;5016636;28;20057;-82
2022/10/14 00:36:52;;;;;;;117.00;19.25;;;12.20;99.90;;;;;;5016566;28;20026;-82
2022/10/14 00:39:18;;;;;;;83.57;19.52;;;12.20;99.90;;;;;;5016775;28;20037;-81
2022/10/14 00:41:44;;;;;;;122.22;21.75;;;12.20;99.90;;;;;;5033049;28;20383;-81
2022/10/14 00:44:09;;;;;;;90.75;21.17;;;12.20;99.90;;;;;;5016742;28;20040;-81
2022/10/14 00:46:40;;;;;;;106.55;18.63;;;12.20;99.90;;;;;;5032820;28;20038;-81
2022/10/14 00:49:11;;;;;;;106.20;17.90;;;12.20;99.90;;;;;;5032739;28;20026;-81
2022/10/14 00:51:38;;;;;;;66.38;18.55;;;12.10;99.90;;;;;;5033172;28;20037;-81
2022/10/14 00:54:04;;;;;;;94.50;18.45;;;12.10;99.90;;;;;;5032890;28;20029;-82
2022/10/14 00:56:30;;;;;;;80.50;17.30;;;12.10;99.90;;;;;;5016301;28;20390;-82
2022/10/14 00:58:57;;;;;;;86.32;17.67;;;12.10;99.90;;;;;;5032816;28;20030;-81
2022/10/14 01:01:23;;;;;;;89.82;19.17;;;12.10;99.90;;;;;;5016460;28;20034;-82
2022/10/14 01:03:48;;;;;;;97.28;17.02;;;12.10;99.90;;;;;;5016510;28;20033;-82
2022/10/14 01:06:30;;;;;;;83.25;18.20;;;12.10;99.90;;;;;;5032665;28;20124;-82
2022/10/14 01:09:50;;;;;;;79.70;17.95;;;12.10;99.90;;;;;;5032342;28;20512;-82
2022/10/14 01:12:17;;;;;;;119.35;18.00;;;12.00;99.90;;;;;;4973251;28;20066;-82
2022/10/14 01:15:04;;;;;;;54.20;16.60;;;12.10;99.90;;;;;;5004586;28;20053;-82
2022/10/14 01:17:48;;;;;;;64.47;16.08;;;12.10;99.90;;;;;;5033758;28;20026;-81
2022/10/14 01:20:51;;;;;;;70.80;15.25;;;12.00;99.90;;;;;;5032752;28;20525;-82
2022/10/14 01:23:20;;;;;;;63.15;15.07;;;12.00;99.90;;;;;;5032649;28;20131;-81
2022/10/14 01:26:00;;;;;;;64.28;15.02;;;12.00;99.90;;;;;;5032311;28;20076;-82
2022/10/14 01:29:05;;;;;;;65.43;15.20;;;12.00;99.90;;;;;;5032544;28;20496;-82
2022/10/14 01:31:34;;;;;;;72.47;14.25;;;12.00;99.90;;;;;;5032570;28;20040;-81
2022/10/14 01:34:04;;;;;;;77.53;16.58;;;12.00;99.90;;;;;;5032249;28;20028;-81
2022/10/14 01:36:33;;;;;;;60.15;16.08;;;12.00;99.90;;;;;;5016095;28;20021;-82
2022/10/14 01:39:33;;;;;;;110.30;16.65;;;12.00;99.90;;;;;;5032219;28;20072;-82
2022/10/14 01:42:08;;;;;;;64.75;15.80;;;12.00;99.90;;;;;;5015717;28;20553;-81
2022/10/14 01:44:39;;;;;;;91.00;16.90;;;11.90;99.90;;;;;;5033706;28;20101;-81
2022/10/14 01:47:07;;;;;;;50.67;16.20;;;12.00;99.90;;;;;;5015650;28;20021;-82
2022/10/14 01:49:44;;;;;;;113.03;17.20;;;12.00;99.90;;;;;;5033262;28;20049;-82
2022/10/14 01:52:18;;;;;;;74.80;17.60;;;11.90;99.90;;;;;;5031980;28;20017;-82
2022/10/14 01:54:46;;;;;;;70.57;16.75;;;12.00;99.90;;;;;;5033254;28;20048;-81
2022/10/14 01:57:17;;;;;;;54.83;17.95;;;11.90;99.90;;;;;;5032330;28;20025;-82
2022/10/14 01:59:45;;;;;;;51.90;18.65;;;11.90;99.90;;;;;;5032318;28;20568;-82
2022/10/14 02:02:12;;;;;;;76.97;18.48;;;12.00;99.90;;;;;;5019512;28;20540;-82
2022/10/14 02:04:38;;;;;;;109.50;21.00;;;11.90;99.90;;;;;;5035920;28;20025;-82
2022/10/14 02:07:23;;;;;;;84.50;20.27;;;12.00;99.90;;;;;;5019343;28;20025;-82
2022/10/14 02:10:18;;;;;;;69.10;19.92;;;12.00;99.90;;;;;;5035761;28;20083;-82
2022/10/14 02:13:04;;;;;;;70.43;20.23;;;12.00;99.90;;;;;;5035013;28;20043;-81
2022/10/14 02:15:56;;;;;;;56.97;20.38;;;12.00;99.90;;;;;;5005631;28;20030;-81
2022/10/14 02:18:40;;;;;;;95.07;23.42;;;12.00;99.90;;;;;;5036853;28;20025;-82
2022/10/14 02:21:23;;;;;;;61.63;21.77;;;12.00;99.90;;;;;;5036806;28;20039;-82
2022/10/14 02:23:56;;;;;;;56.83;21.95;;;12.00;99.90;;;;;;5019629;28;20040;-82
2022/10/14 02:26:24;;;;;;;63.38;20.20;;;12.00;99.90;;;;;;5036706;28;20080;-82
2022/10/14 02:28:51;;;;;;;58.03;20.55;;;12.00;99.90;;;;;;5035367;28;20087;-82
2022/10/14 02:31:18;;;;;;;53.25;21.38;;;12.10;99.90;;;;;;5019004;28;20079;-81
2022/10/14 02:33:50;;;;;;;47.65;22.38;;;12.00;99.90;;;;;;5018824;28;20025;-81
2022/10/14 02:36:21;;;;;;;53.20;22.80;;;12.00;99.90;;;;;;5035288;28;20021;-82
2022/10/14 02:38:48;;;;;;;45.60;21.33;;;12.00;99.90;;;;;;5035288;28;20113;-82
2022/10/14 02:41:18;;;;;;;45.58;22.75;;;12.10;99.90;;;;;;5018982;28;20033;-82
2022/10/14 02:43:45;;;;;;;45.45;23.10;;;12.10;99.90;;;;;;5036410;28;20036;-82
2022/10/14 02:46:11;;;;;;;45.38;23.40;;;12.10;99.90;;;;;;5035071;28;20025;-81
2022/10/14 02:48:37;;;;;;;47.17;23.67;;;12.10;99.90;;;;;;5035059;28;20022;-81
2022/10/14 02:51:03;;;;;;;46.88;23.48;;;12.10;99.90;;;;;;5002168;28;20036;-81
2022/10/14 02:53:29;;;;;;;52.83;23.98;;;12.20;99.90;;;;;;5018890;28;20061;-81
2022/10/14 02:55:55;;;;;;;47.85;23.25;;;12.10;99.90;;;;;;5018633;28;20022;-82
2022/10/14 02:58:21;;;;;;;51.40;23.85;;;12.20;99.90;;;;;;5018638;28;20022;-81
2022/10/14 03:00:48;;;;;;;49.70;23.60;;;12.20;99.90;;;;;;5018266;28;20017;-81
2022/10/14 03:03:13;;;;;;;49.83;25.60;;;12.20;99.90;;;;;;5034731;28;20477;-82
2022/10/14 03:05:39;;;;;;;59.70;24.70;;;12.20;99.90;;;;;;5018402;28;20029;-82
2022/10/14 03:08:05;;;;;;;51.55;24.65;;;12.20;99.90;;;;;;5035677;28;20429;-82
2022/10/14 03:10:31;;;;;;;58.95;24.75;;;12.20;99.90;;;;;;5001751;28;20022;-82
2022/10/14 03:12:56;;;;;;;53.65;26.58;;;12.30;99.90;;;;;;5016922;28;20587;-82
2022/10/14 03:15:22;;;;;;;59.38;27.23;;;12.30;99.90;;;;;;5001734;28;20473;-81
2022/10/14 03:17:47;;;;;;;56.55;26.77;;;12.30;99.90;;;;;;5018029;28;20469;-82
2022/10/14 03:20:13;;;;;;;59.80;25.85;;;12.30;99.90;;;;;;5001688;28;20021;-82
2022/10/14 03:22:39;;;;;;;87.32;29.63;;;12.30;99.90;;;;;;5018569;28;20076;-82
2022/10/14 03:25:05;;;;;;;53.00;26.40;;;12.30;99.90;;;;;;5034476;28;20030;-82
2022/10/14 03:27:31;;;;;;;64.82;27.38;;;12.30;99.90;;;;;;5018001;28;20556;-82
2022/10/14 03:29:56;;;;;;;54.83;25.40;;;12.40;99.90;;;;;;5017856;28;20025;-82
2022/10/14 03:32:22;;;;;;;82.72;26.52;;;12.40;99.90;;;;;;5035511;28;20116;-82
2022/10/14 03:34:47;;;;;;;67.22;27.60;;;12.40;99.90;;;;;;5034268;28;20079;-82
2022/10/14 03:37:13;;;;;;;68.65;28.63;;;12.40;99.90;;;;;;5017949;28;20060;-82
2022/10/14 03:39:39;;;;;;;67.65;28.40;;;12.40;99.90;;;;;;5034451;28;20041;-82
2022/10/14 03:42:04;;;;;;;69.63;29.27;;;12.40;99.90;;;;;;5001343;28;20053;-82
2022/10/14 03:44:30;;;;;;;71.05;31.08;;;12.40;99.90;;;;;;5035730;28;20022;-82
2022/10/14 03:46:56;;;;;;;63.90;29.50;;;12.40;99.90;;;;;;5017675;28;20036;-82
2022/10/14 03:49:22;;;;;;;67.63;28.98;;;12.50;99.90;;;;;;5001057;28;20087;-82
2022/10/14 03:51:47;;;;;;;63.72;28.35;;;12.40;99.90;;;;;;5017858;28;20524;-82
2022/10/14 03:54:13;;;;;;;64.22;29.20;;;12.50;99.90;;;;;;5033865;28;20025;-82
2022/10/14 03:56:38;;;;;;;60.63;28.77;;;12.50;99.90;;;;;;5033793;28;20026;-82
2022/10/14 03:59:04;;;;;;;72.78;30.67;;;12.50;99.90;;;;;;5000976;28;20060;-81
2022/10/14 04:01:30;;;;;;;66.15;30.30;;;12.50;99.90;;;;;;5017191;28;20448;-82
2022/10/14 04:03:55;;;;;;;66.18;30.20;;;12.50;99.90;;;;;;5001037;28;20037;-81
2022/10/14 04:06:21;;;;;;;63.95;29.67;;;12.50;99.90;;;;;;5033684;28;20469;-82
2022/10/14 04:08:46;;;;;;;68.50;31.00;;;12.50;99.90;;;;;;5033566;28;20409;-82
2022/10/14 04:11:12;;;;;;;67.40;29.98;;;12.50;99.90;;;;;;5033343;28;20026;-82
2022/10/14 04:13:38;;;;;;;71.88;32.10;;;12.50;99.90;;;;;;5000657;28;20045;-82
2022/10/14 04:16:09;;;;;;;72.47;31.75;;;12.60;99.90;;;;;;5000503;28;20025;-81
2022/10/14 04:18:35;;;;;;;68.38;30.88;;;12.60;99.90;;;;;;5033461;28;20014;-81
2022/10/14 04:21:07;;;;;;;66.30;30.02;;;12.60;99.90;;;;;;5033418;28;20087;-82
2022/10/14 04:23:33;;;;;;;63.17;29.20;;;12.60;99.90;;;;;;5035111;28;20051;-81
2022/10/14 04:26:06;;;;;;;69.68;31.85;;;12.60;99.90;;;;;;5036388;28;20025;-81
2022/10/14 04:28:32;;;;;;;69.43;31.85;;;12.60;99.90;;;;;;5036298;28;20033;-81
2022/10/14 04:30:58;;;;;;;71.47;31.40;;;12.60;99.90;;;;;;5036429;28;20120;-81
2022/10/14 04:33:24;;;;;;;71.80;31.70;;;12.60;99.90;;;;;;5052999;28;20032;-82
2022/10/14 04:35:50;;;;;;;71.47;32.30;;;12.60;99.90;;;;;;5019974;28;20021;-81
2022/10/14 04:38:16;;;;;;;74.72;32.10;;;12.70;99.90;;;;;;5036419;28;20541;-81
2022/10/14 04:40:44;;;;;;;70.45;32.03;;;12.70;99.90;;;;;;5052946;28;20063;-81
2022/10/14 04:43:10;;;;;;;66.45;30.95;;;12.70;99.90;;;;;;5036358;28;20021;-82
2022/10/14 04:45:35;;;;;;;75.22;32.45;;;12.70;99.90;;;;;;5036216;28;20025;-81
2022/10/14 04:48:01;;;;;;;64.63;31.45;;;12.70;99.90;;;;;;5036362;28;20048;-81
2022/10/14 04:50:27;;;;;;;74.20;32.08;;;12.70;99.90;;;;;;5019572;28;20017;-82
2022/10/14 04:52:52;;;;;;;62.67;29.83;;;12.70;99.90;;;;;;5036466;28;20029;-82
2022/10/14 04:55:18;;;;;;;66.80;30.50;;;12.70;99.90;;;;;;5019650;28;20616;-82
2022/10/14 04:57:43;;;;;;;68.43;31.90;;;12.80;99.90;;;;;;5019556;28;20013;-82
2022/10/14 05:00:13;;;;;;;68.60;31.38;;;12.80;99.90;;;;;;5019496;28;20037;-82
2022/10/14 05:02:39;;;;;;;63.33;29.70;;;12.80;99.90;;;;;;5052471;28;20120;-82
2022/10/14 05:05:05;;;;;;;73.78;34.33;;;12.80;99.90;;;;;;5036048;28;20044;-81
2022/10/14 05:07:32;;;;;;;75.25;33.38;;;12.80;99.90;;;;;;5019398;28;20025;-81
2022/10/14 05:09:57;;;;;;;63.83;31.88;;;12.80;99.90;;;;;;5052332;28;20021;-81
2022/10/14 05:12:23;;;;;;;67.95;32.15;;;12.80;99.90;;;;;;5035805;28;20408;-81
2022/10/14 05:14:48;;;;;;;72.13;32.38;;;12.80;99.90;;;;;;5035799;28;20025;-81
2022/10/14 05:17:14;;;;;;;63.78;32.28;;;12.80;99.90;;;;;;5036045;28;20044;-81
2022/10/14 05:19:40;;;;;;;68.35;33.08;;;12.90;99.90;;;;;;5035681;28;20049;-81
2022/10/14 05:22:06;;;;;;;65.70;33.13;;;12.90;99.90;;;;;;5035893;28;20099;-81
2022/10/14 05:24:31;;;;;;;66.15;32.47;;;12.90;99.90;;;;;;5052664;28;20426;-81
2022/10/14 05:26:57;;;;;;;75.97;32.78;;;12.90;99.90;;;;;;5036012;28;20032;-81
2022/10/14 05:29:22;;;;;;;64.20;31.65;;;12.90;99.90;;;;;;5035350;28;20033;-81
2022/10/14 05:31:48;;;;;;;64.55;32.20;;;12.90;99.90;;;;;;5018903;28;20389;-81
2022/10/14 05:34:14;;;;;;;65.75;32.33;;;12.90;99.90;;;;;;5035194;28;20025;-82
2022/10/14 05:36:39;;;;;;;63.90;31.42;;;12.90;99.90;;;;;;5034917;28;20146;-77
2022/10/14 05:39:10;;;;;;;63.58;32.65;;;13.00;99.90;;;;;;5053078;28;20083;-77
2022/10/14 05:41:36;;;;;;;64.63;31.20;;;13.00;99.90;;;;;;5035277;28;20477;-77
2022/10/14 05:44:02;;;;;;;61.63;31.17;;;13.00;99.90;;;;;;5035351;28;20037;-77
2022/10/14 05:46:28;;;;;;;65.93;31.33;;;13.00;99.90;;;;;;5018899;28;20052;-77
2022/10/14 05:48:55;;;;;;;61.95;32.88;;;13.00;99.90;;;;;;5018783;28;20037;-77
2022/10/14 05:51:21;;;;;;;65.75;32.17;;;13.00;99.90;;;;;;5018719;28;20054;-77
2022/10/14 05:53:47;;;;;;;58.42;31.20;;;13.00;99.90;;;;;;5018908;28;20032;-77
2022/10/14 05:56:13;;;;;;;59.03;30.55;;;13.10;99.90;;;;;;5035308;28;20400;-77
2022/10/14 05:58:38;;;;;;;59.38;32.25;;;13.10;99.90;;;;;;5035118;28;20029;-79
2022/10/14 06:01:06;;;;;;;54.75;29.33;;;13.10;99.90;;;;;;5035140;28;20029;-79
2022/10/14 06:03:32;;;;;;;51.83;28.75;;;13.10;99.90;;;;;;5051804;28;20179;-79
2022/10/14 06:05:58;;;;;;;47.97;28.25;;;13.10;99.90;;;;;;5035281;28;20128;-79
2022/10/14 06:08:25;;;;;;;48.42;27.42;;;13.20;99.90;;;;;;5018638;28;20036;-79
2022/10/14 06:10:51;;;;;;;49.22;26.35;;;13.20;99.90;;;;;;5018516;28;20033;-79
2022/10/14 06:13:17;;;;;;;41.42;25.70;;;13.20;99.90;;;;;;5051297;28;20186;-79
2022/10/14 06:15:43;;;;;;;38.42;24.70;;;13.20;99.90;;;;;;5052806;28;20075;-79
2022/10/14 06:18:09;;;;;;;41.03;25.13;;;13.30;99.90;;;;;;5052626;28;20120;-80
2022/10/14 06:20:35;;;;;;;36.17;23.83;;;13.30;99.90;;;;;;5018485;28;20040;-80
2022/10/14 06:23:01;;;;;;;30.48;20.67;;;13.30;99.90;;;;;;5034916;28;20362;-80
2022/10/14 06:25:28;;;;;;;29.67;20.15;;;13.30;99.90;;;;;;5035944;28;20422;-80
2022/10/14 06:27:54;;;;;;;31.20;21.98;;;13.40;99.90;;;;;;5052713;28;20036;-80
2022/10/14 06:30:20;;;;;;;30.77;20.80;;;13.50;99.90;;;;;;5018390;28;20025;-80
2022/10/14 06:32:46;;;;;;;31.75;21.02;;;13.40;99.90;;;;;;5035011;28;20033;-80
2022/10/14 06:35:14;;;;;;;26.73;18.85;;;13.40;99.90;;;;;;5035217;28;20028;-81
2022/10/14 06:37:43;;;;;;;27.83;19.63;;;13.50;99.90;;;;;;5027132;28;20075;-80
2022/10/14 06:40:09;;;;;;;26.67;20.05;;;13.50;99.90;;;;;;5014914;28;20029;-80
2022/10/14 06:42:34;;;;;;;26.38;20.05;;;13.50;99.90;;;;;;4999010;28;20113;-80
2022/10/14 06:45:00;;;;;;;27.27;19.58;;;13.50;99.90;;;;;;5015817;28;20381;-80
2022/10/14 06:47:26;;;;;;;28.08;18.48;;;13.50;99.90;;;;;;5001416;28;20034;-81
2022/10/14 06:49:51;;;;;;;26.63;19.35;;;13.60;99.90;;;;;;5019416;28;20036;-81
2022/10/14 06:52:17;;;;;;;24.92;18.45;;;13.60;99.90;;;;;;5019250;28;20493;-80
2022/10/14 06:54:43;;;;;;;28.55;19.05;;;13.60;99.90;;;;;;5002251;28;20083;-80
2022/10/14 06:57:08;;;;;;;26.60;19.02;;;13.60;99.90;;;;;;5036452;28;20033;-80
2022/10/14 06:59:34;;;;;;;24.85;18.00;;;13.70;99.90;;;;;;5019415;28;20029;-80
2022/10/14 07:01:59;;;;;;;25.50;18.10;;;13.60;99.90;;;;;;5003003;28;20032;-80
2022/10/14 07:04:26;;;;;;;23.80;17.15;;;13.70;99.90;;;;;;5002276;28;20030;-82
2022/10/14 07:06:51;;;;;;;23.55;17.15;;;13.70;99.90;;;;;;5036018;28;20038;-80
2022/10/14 07:09:17;;;;;;;24.27;18.67;;;13.70;99.90;;;;;;5018724;28;20030;-80
2022/10/14 07:11:42;;;;;;;24.17;17.80;;;13.80;99.90;;;;;;5034456;28;20033;-81
2022/10/14 07:14:09;;;;;;;26.20;17.50;;;13.80;99.90;;;;;;5002070;28;20064;-80
2022/10/14 07:16:35;;;;;;;23.48;18.13;;;13.80;99.90;;;;;;5034556;28;20358;-80
2022/10/14 07:19:00;;;;;;;24.85;17.73;;;13.80;99.90;;;;;;5001863;28;20084;-79
2022/10/14 07:21:26;;;;;;;22.45;16.83;;;13.80;99.90;;;;;;5018231;28;20057;-81
2022/10/14 07:23:52;;;;;;;21.13;16.05;;;13.80;99.90;;;;;;5001737;28;20120;-79
2022/10/14 07:26:20;;;;;;;21.35;15.52;;;13.90;99.90;;;;;;5034524;28;20033;-79
2022/10/14 07:28:46;;;;;;;22.35;15.85;;;13.90;99.90;;;;;;5017849;28;20136;-80
2022/10/14 07:31:12;;;;;;;19.90;14.35;;;13.90;99.90;;;;;;5018054;28;20033;-80
2022/10/14 07:33:38;;;;;;;20.45;15.32;;;14.00;99.90;;;;;;5001662;28;20022;-79
2022/10/14 07:36:13;;;;;;;20.05;14.60;;;14.00;99.90;;;;;;5017943;28;20017;-80
2022/10/14 07:38:38;;;;;;;19.95;13.48;;;14.00;99.90;;;;;;5035685;28;20100;-79
2022/10/14 07:41:18;;;;;;;18.35;13.70;;;14.00;99.90;;;;;;5001369;28;20120;-80
2022/10/14 07:43:49;;;;;;;18.73;13.88;;;14.10;99.90;;;;;;5034159;28;20029;-79
2022/10/14 07:46:27;;;;;;;16.60;12.80;;;14.10;99.90;;;;;;5036625;28;20389;-79
2022/10/14 07:48:52;;;;;;;17.40;11.88;;;14.10;99.90;;;;;;5037595;28;20036;-79
2022/10/14 07:51:18;;;;;;;16.25;12.30;;;14.10;99.90;;;;;;5055273;28;20372;-80
2022/10/14 07:53:44;;;;;;;17.58;11.50;;;14.10;99.90;;;;;;5037376;28;20112;-81
2022/10/14 07:56:09;;;;;;;16.83;12.32;;;14.10;99.90;;;;;;5053908;28;20032;-78
2022/10/14 07:58:35;;;;;;;16.85;11.75;;;14.20;99.90;;;;;;5020272;28;20028;-81
2022/10/14 08:01:01;;;;;;;14.63;10.80;;;14.20;99.90;;;;;;5037421;28;20029;-80
2022/10/14 08:03:27;;;;;;;16.08;11.93;;;14.20;99.90;;;;;;5020570;28;20022;-81
2022/10/14 08:06:00;;;;;;;15.60;12.02;;;14.20;99.90;;;;;;5020700;28;20115;-80
2022/10/14 08:08:27;;;;;;;17.80;11.68;;;14.30;99.90;;;;;;5037457;28;20045;-80
2022/10/14 08:11:04;;;;;;;17.42;11.55;;;14.30;99.90;;;;;;5053276;28;20147;-81
2022/10/14 08:13:30;;;;;;;16.35;11.27;;;14.30;99.90;;;;;;5036698;28;20044;-80
2022/10/14 08:15:55;;;;;;;14.85;9.98;;;14.30;99.90;;;;;;5020461;28;20022;-80
2022/10/14 08:18:22;;;;;;;13.80;10.50;;;14.40;99.90;;;;;;5037273;28;20033;-80
2022/10/14 08:20:47;;;;;;;14.55;10.77;;;14.40;99.90;;;;;;5036851;28;20017;-79
2022/10/14 08:23:13;;;;;;;15.75;11.10;;;14.40;99.90;;;;;;5020297;28;20025;-80
2022/10/14 08:25:39;;;;;;;12.20;9.50;;;14.50;99.90;;;;;;5020004;28;20029;-80
2022/10/14 08:28:05;;;;;;;12.95;9.63;;;14.50;99.90;;;;;;5020173;28;20036;-80
2022/10/14 08:30:30;;;;;;;13.38;10.02;;;14.50;99.90;;;;;;5053173;28;20017;-80
2022/10/14 08:32:56;;;;;;;14.13;10.15;;;14.50;99.90;;;;;;5036365;28;20106;-80
2022/10/14 08:35:23;;;;;;;13.57;10.50;;;14.60;99.90;;;;;;5054165;28;20529;-82
2022/10/14 08:37:59;;;;;;;14.82;10.10;;;14.60;99.90;;;;;;5036334;28;20128;-81
2022/10/14 08:40:28;;;;;;;12.75;10.18;;;14.50;99.90;;;;;;5036183;28;20423;-81
2022/10/14 08:43:22;;;;;;;13.50;9.13;;;14.70;99.90;;;;;;5054052;28;20031;-81
2022/10/14 08:45:57;;;;;;;14.82;10.18;;;14.70;99.90;;;;;;5048297;28;20044;-79
2022/10/14 08:48:27;;;;;;;12.43;8.98;;;14.70;99.90;;;;;;5054070;28;20025;-82
2022/10/14 08:51:02;;;;;;;17.10;11.25;;;14.70;99.90;;;;;;5052574;28;20468;-80
2022/10/14 08:53:52;;;;;;;13.57;10.40;;;14.70;99.90;;;;;;5036092;28;20017;-80
2022/10/14 08:56:19;;;;;;;14.95;11.20;;;14.70;99.90;;;;;;5036250;28;20021;-81
2022/10/14 08:58:49;;;;;;;12.43;9.15;;;14.70;99.90;;;;;;5035993;28;20032;-80
2022/10/14 09:01:30;;;;;;;13.65;9.70;;;14.70;99.90;;;;;;5052523;28;20052;-82
2022/10/14 09:04:03;;;;;;;10.52;8.05;;;14.70;99.90;;;;;;5052619;28;20029;-81
2022/10/14 09:06:32;;;;;;;12.43;8.55;;;14.70;99.90;;;;;;5052365;28;20424;-81
2022/10/14 09:09:32;;;;;;;11.10;8.20;;;14.80;99.90;;;;;;5052488;28;20031;-80
2022/10/14 09:12:06;;;;;;;11.50;8.02;;;14.80;99.90;;;;;;5043999;28;20160;-82
2022/10/14 09:14:44;;;;;;;9.60;7.38;;;14.80;99.90;;;;;;5015911;28;20113;-82
2022/10/14 09:17:26;;;;;;;11.73;8.95;;;14.80;99.90;;;;;;5016187;28;20071;-81
2022/10/14 09:20:12;;;;;;;11.60;8.63;;;14.80;99.90;;;;;;5033923;28;20021;-82
2022/10/14 09:22:37;;;;;;;10.93;8.20;;;14.80;99.90;;;;;;5016101;28;20064;-80
2022/10/14 09:25:11;;;;;;;11.65;8.93;;;14.80;99.90;;;;;;5015787;28;20129;-81
2022/10/14 09:27:37;;;;;;;10.10;7.82;;;14.80;99.90;;;;;;5015808;28;20029;-80
2022/10/14 09:30:09;;;;;;;11.18;8.20;;;14.90;99.90;;;;;;5015982;28;20029;-81
2022/10/14 09:32:42;;;;;;;9.88;7.40;;;14.90;99.90;;;;;;5015653;28;20056;-81
2022/10/14 09:35:38;;;;;;;12.50;8.25;;;14.90;99.90;;;;;;5016779;28;20112;-81
2022/10/14 09:38:04;;;;;;;10.93;7.95;;;15.00;99.90;;;;;;5025467;28;20172;-79
2022/10/14 09:40:40;;;;;;;10.65;7.90;;;15.00;99.90;;;;;;5016197;28;20094;-79
2022/10/14 09:43:13;;;;;;;10.30;8.10;;;15.10;99.90;;;;;;5016716;28;20030;-80
2022/10/14 09:46:01;;;;;;;12.35;8.70;;;15.10;99.90;;;;;;5033392;28;20034;-80
2022/10/14 09:48:48;;;;;;;9.70;6.82;;;15.20;99.90;;;;;;5015955;28;20022;-79
2022/10/14 09:51:25;;;;;;;10.40;7.38;;;15.20;99.90;;;;;;5033126;28;20168;-82
2022/10/14 09:53:54;;;;;;;12.00;8.15;;;15.20;99.90;;;;;;5033335;28;20021;-78
2022/10/14 09:56:30;;;;;;;8.88;7.15;;;15.30;99.90;;;;;;5033150;28;20060;-78
2022/10/14 09:58:57;;;;;;;10.02;7.47;;;15.30;99.90;;;;;;5015386;28;20022;-77
2022/10/14 10:01:26;;;;;;;9.23;6.65;;;15.40;99.90;;;;;;5015365;28;20082;-77
2022/10/14 10:03:53;;;;;;;9.98;7.95;;;15.40;99.90;;;;;;5033396;28;20473;-80
2022/10/14 10:06:24;;;;;;;7.78;6.32;;;15.50;99.90;;;;;;5015040;28;20490;-78
2022/10/14 10:08:53;;;;;;;8.40;5.85;;;15.50;99.90;;;;;;5015123;28;20030;-78
2022/10/14 10:11:39;;;;;;;8.40;6.35;;;15.50;99.90;;;;;;5031710;28;20030;-82
2022/10/14 10:14:31;;;;;;;8.30;6.25;;;15.60;99.90;;;;;;4995799;28;20046;-81
2022/10/14 10:17:06;;;;;;;9.98;8.00;;;15.60;99.90;;;;;;5028645;28;20022;-80
2022/10/14 10:19:44;;;;;;;9.18;6.20;;;15.60;99.90;;;;;;5028527;28;20025;-83
2022/10/14 10:22:19;;;;;;;10.02;7.63;;;15.60;99.90;;;;;;5015668;28;20025;-82
2022/10/14 10:24:50;;;;;;;8.05;6.65;;;15.70;99.90;;;;;;5032315;28;20033;-81
2022/10/14 10:27:28;;;;;;;7.82;6.55;;;15.60;99.90;;;;;;5032167;28;20048;-82
2022/10/14 10:29:57;;;;;;;9.07;5.68;;;15.70;99.90;;;;;;5032150;28;20026;-82
2022/10/14 10:32:41;;;;;;;9.40;6.20;;;15.60;99.90;;;;;;5032385;28;20033;-81
2022/10/14 10:35:06;;;;;;;;;;;15.70;99.90;;;;;;5032803;28;20018;-81
2022/10/14 10:38:08;;;;;;;7.82;6.40;;;15.80;99.90;;;;;;5016824;28;19905;-81
2022/10/14 10:40:46;;;;;;;8.38;6.70;;;15.80;99.90;;;;;;5031972;28;20018;-82
2022/10/14 10:43:30;;;;;;;9.45;6.47;;;15.90;99.90;;;;;;5032414;28;20026;-80
2022/10/14 10:46:20;;;;;;;7.93;5.97;;;15.90;99.90;;;;;;5032526;28;20060;-81
2022/10/14 10:49:04;;;;;;;11.80;5.97;;;16.00;99.90;;;;;;5016701;28;20105;-81
2022/10/14 10:51:37;;;;;;;9.50;5.30;;;16.10;99.90;;;;;;5031704;28;20065;-82
2022/10/14 10:54:25;;;;;;;8.02;5.07;;;16.20;99.90;;;;;;5031721;28;20021;-81
2022/10/14 10:57:03;;;;;;;7.90;5.25;;;16.20;99.90;;;;;;5032113;28;20022;-81
2022/10/14 10:59:38;;;;;;;9.25;6.70;;;16.30;99.90;;;;;;5031723;28;20018;-82
2022/10/14 11:02:37;;;;;;;7.85;6.05;;;16.30;99.90;;;;;;5031710;28;20057;-81
2022/10/14 11:05:14;;;;;;;7.40;5.75;;;16.30;99.90;;;;;;5016778;28;20025;-81
2022/10/14 11:21:04;;;;;;;7.95;5.38;;;16.20;99.90;;;;;;5054043;28;20036;-81
2022/10/14 11:23:38;;;;;;;8.43;6.25;;;16.20;99.90;;;;;;5015979;28;20029;-81
2022/10/14 11:26:42;;;;;;;8.57;5.50;;;16.30;99.90;;;;;;5031340;28;20497;-81
2022/10/14 11:29:28;;;;;;;8.07;5.40;;;16.20;99.90;;;;;;5003140;28;20026;-81
2022/10/14 11:32:23;;;;;;;8.15;5.32;;;16.30;99.90;;;;;;5030770;28;20397;-81
2022/10/14 11:35:11;;;;;;;11.40;5.68;;;16.30;99.90;;;;;;5031436;28;20026;-82
2022/10/14 11:37:58;;;;;;;6.35;4.68;;;16.30;99.90;;;;;;5014946;28;20462;-80
2022/10/14 11:40:35;;;;;;;6.00;4.43;;;16.20;99.90;;;;;;5031261;28;20022;-81
2022/10/14 11:43:28;;;;;;;6.80;5.22;;;16.30;99.90;;;;;;5015827;28;20036;-80
2022/10/14 11:46:05;;;;;;;5.90;4.40;;;16.30;99.90;;;;;;5030897;28;20057;-82
2022/10/14 11:48:32;;;;;;;6.97;4.88;;;16.30;99.90;;;;;;5015741;28;20030;-81
2022/10/14 11:51:07;;;;;;;7.45;4.78;;;16.30;99.90;;;;;;5030944;28;20666;-82
2022/10/14 11:53:35;;;;;;;7.68;5.13;;;16.20;99.90;;;;;;5014280;28;20022;-80
2022/10/14 11:56:09;;;;;;;7.82;4.85;;;16.30;99.90;;;;;;5030862;28;20037;-82
2022/10/14 11:58:37;;;;;;;6.65;4.57;;;16.30;99.90;;;;;;5014177;28;20022;-81
2022/10/14 12:01:05;;;;;;;7.10;4.68;;;16.30;99.90;;;;;;5014222;28;20022;-81
2022/10/14 12:03:58;;;;;;;5.13;3.88;;;16.30;99.90;;;;;;5014139;28;20018;-81
2022/10/14 12:06:50;;;;;;;6.72;4.65;;;16.30;99.90;;;;;;5030822;28;20512;-79
2022/10/14 12:09:27;;;;;;;7.20;4.55;;;16.20;99.90;;;;;;5019913;28;20065;-81
2022/10/14 12:12:02;;;;;;;5.30;3.72;;;16.20;99.90;;;;;;5015047;28;20041;-80
2022/10/14 12:14:38;;;;;;;5.35;3.78;;;16.30;99.90;;;;;;5013592;28;20045;-80
2022/10/14 12:17:14;;;;;;;4.72;3.30;;;16.30;99.90;;;;;;5014940;28;20018;-81
2022/10/14 12:19:40;;;;;;;5.13;3.28;;;16.20;99.90;;;;;;5015089;28;20022;-80
2022/10/14 12:22:21;;;;;;;5.60;3.75;;;16.30;99.90;;;;;;5013753;28;20145;-79
2022/10/14 12:24:51;;;;;;;6.75;3.60;;;16.20;99.90;;;;;;5030253;28;20025;-79
2022/10/14 12:27:20;;;;;;;5.10;2.70;;;16.30;99.90;;;;;;5014768;28;20420;-79
2022/10/14 12:29:51;;;;;;;4.63;3.10;;;16.30;99.90;;;;;;5014784;28;20367;-81
2022/10/14 12:32:19;;;;;;;3.50;2.25;;;16.30;99.90;;;;;;5014762;28;20026;-80
2022/10/14 12:34:48;;;;;;;4.30;2.85;;;16.30;99.90;;;;;;5029906;28;20487;-79
2022/10/14 12:37:33;;;;;;;3.58;2.00;;;16.40;99.90;;;;;;5029655;28;20049;-79
2022/10/14 12:40:02;;;;;;;4.05;2.33;;;16.40;99.90;;;;;;5030079;28;20474;-81
2022/10/14 12:42:56;;;;;;;3.42;2.25;;;16.50;99.90;;;;;;5014457;28;20030;-79
2022/10/14 12:45:23;;;;;;;;;;;16.50;99.90;;;;;;5027115;28;20045;-81
2022/10/14 12:48:15;;;;;;;4.38;1.90;;;16.50;99.90;;;;;;5014366;28;20350;-80
2022/10/14 12:50:42;;;;;;;2.20;1.63;;;16.50;99.90;;;;;;5014342;28;20025;-79
2022/10/14 12:53:28;;;;;;;2.33;1.33;;;16.60;99.90;;;;;;5029421;28;20021;-79
2022/10/14 12:56:00;;;;;;;3.08;1.42;;;16.50;99.90;;;;;;5029355;28;20022;-81
2022/10/14 12:58:35;;;;;;;3.90;1.25;;;16.50;99.90;;;;;;5012747;28;20033;-81
2022/10/14 13:01:14;;;;;;;3.63;2.00;;;16.50;99.90;;;;;;5029906;28;20026;-79
2022/10/14 13:03:44;;;;;;;3.30;1.85;;;16.50;99.90;;;;;;5029642;28;20410;-80
2022/10/14 13:06:25;;;;;;;2.28;1.20;;;16.50;99.90;;;;;;5029213;28;20478;-82